x

Portland 12 Nm Southeast Of Portland,me (44007) Wave Buoy

4:50am - Sun 31st Aug 2014 All times are EDT. -4 hours from GMT.

  • Sig Wave height 3.9ft
  • Swell Direction
  • Peak Period 6s
  • Average Period 5s
  • Wind
    13mph, 16mph gusts
  • Sea Temp 60°f
  • 空気 Temp 63°f
  • Sea Pressure 1017mb
  • Portland 12 Nm Southeast Of Portland,me
  • Portland 12 Nm Southeast Of Portland,me

More Historic Weather Station data

Upgrade to MSW Pro to gain access to the past 30 days of data for over 8000 Wavebouys and Weather Stations around the globe.

Join Pro

Comparision Forecast

View Surf forecast
   
Sun 08/31 4:50am 4ft 6s 5s 13 16 mph 1017mb 60f 63f
3:50am 4ft 6s 5s 20 22 mph 1017.2mb 60f 64f
2:50am 4ft 6s 4s 18 22 mph 1017.5mb 60f 64f
1:50am 4.5ft 6s 5s 18 20 mph 1018mb 60f 64f
12:50am 4.5ft 6s 5s 22 25 mph 1018.4mb 60f 64f
Sat 08/30 11:50pm 4.5ft 6s 5s 20 25 mph 1018.7mb 60f 64f
10:50pm 4.5ft 5s 5s 20 22 mph 1019.2mb 60f 64f
9:50pm 4ft 5s 5s 20 22 mph 1019.3mb 61f 64f
8:50pm 4ft 5s 5s 18 22 mph 1019.7mb 61f 64f
7:50pm 4ft 5s 5s 20 25 mph 1019.6mb 61f 64f
6:50pm 3.5ft 5s 4s 18 22 mph 1020mb 61f 64f
5:50pm 3.5ft 5s 4s 16 20 mph 1020.6mb 62f 64f
4:50pm 3.5ft 5s 4s 18 22 mph 1021.1mb 62f 64f
3:50pm 3.5ft 5s 4s 18 22 mph 1021.7mb 63f 64f
2:50pm 3.5ft 4s 4s 20 22 mph 1022.1mb 63f 63f
1:50pm 3ft 4s 4s 20 25 mph 1022.9mb 62f 63f
12:50pm 2.5ft 9s 4s 18 20 mph 1024mb 62f 63f
11:50am 2.5ft 9s 4s 16 18 mph 1024.6mb 62f 63f
10:50am 2.5ft 9s 5s 13 16 mph 1025mb 62f 63f
9:50am 2.5ft 9s 5s 13 16 mph 1025.3mb 62f 62f
8:50am 2.5ft 9s 5s 13 16 mph 1025.3mb 62f 62f
7:50am 2.5ft 11s 5s 11 13 mph 1025.6mb 62f 62f
6:50am 2.5ft 9s 5s 13
mph
1025.5mb 61f 62f
5:50am 2ft 9s 5s 9
mph
1025.3mb 62f 62f
4:50am 2.5ft 10s 6s 7 9 mph 1025.3mb 62f 60f
3:50am 2ft 11s 5s 7 9 mph 1025.1mb 62f 60f
2:50am 2ft 10s 5s 9 11 mph 1025.1mb 62f 60f
1:50am 2ft 11s 5s 11 13 mph 1025.1mb 62f 60f
12:50am 2.5ft 11s 5s 9
mph
1025mb 62f 61f
Fri 08/29 11:50pm 2.5ft 11s 6s 11 13 mph 1024.5mb 62f 62f
10:50pm 2.5ft 11s 6s 11
mph
1024.6mb 62f 62f
9:50pm 2.5ft 11s 6s 11 13 mph 1024.4mb 62f 62f
8:50pm 2.5ft 12s 6s 11 13 mph 1024.2mb 62f 62f
7:50pm 2.5ft 13s 7s 11 13 mph 1023.7mb 62f 63f
6:50pm 2.5ft 12s 8s 9 11 mph 1023.4mb 62f 63f
5:50pm 2.5ft 11s 7s 11
mph
1022.9mb 63f 63f
4:50pm 3ft 12s 7s 9 11 mph 1022.6mb 63f 62f
3:50pm 2.5ft 13s 6s 9 13 mph 1022.4mb 63f 62f
2:50pm 2.5ft 13s 7s 11 13 mph 1022.2mb 63f 61f
1:50pm 2.5ft 12s 6s 11 13 mph 1022.2mb 63f 61f
12:50pm 3ft 14s 7s 9 11 mph 1022.4mb 63f 61f
11:50am 3ft 14s 6s 9 11 mph 1022.2mb 63f 61f
10:50am 3.5ft 14s 6s 9 13 mph 1022.2mb 63f 61f
9:50am 3.5ft 14s 7s 11 16 mph 1021.5mb 62f 61f
8:50am 3ft 13s 8s 13 16 mph 1020.3mb 62f 60f
7:50am 3ft 14s 10s 13 18 mph 1020mb 62f 60f
6:50am 3.5ft 14s 10s 9 11 mph 1019.2mb 60f 61f
5:50am 3.5ft 13s 9s 4 7 mph 1018mb 60f 60f
4:50am 2.5ft 14s 7s 7
mph
1016.6mb 60f 60f
3:50am 3ft 14s 8s 7 11 mph 1015.8mb 61f 61f
2:50am 3.5ft 14s 8s 11 13 mph 1015.3mb 62f 62f
1:50am 3.5ft 14s 8s 16 18 mph 1014.7mb 62f 62f
12:50am 3.5ft 14s 8s 13 16 mph 1014.4mb 61f 63f
Thu 08/28 11:50pm 3.5ft 14s 7s 13
mph
1014.1mb 60f 63f
10:50pm 3ft 14s 8s 11 16 mph 1013.7mb 61f 64f
9:50pm 3.5ft 14s 7s 18 22 mph 1012.8mb 61f 65f
8:50pm 3.5ft 12s 7s 16 22 mph 1012.3mb 61f 66f
7:50pm 3.5ft 14s 7s 16 18 mph 1011.7mb 61f 66f
6:50pm 4ft 13s 6s 22 25 mph 1010.4mb 62f 67f
5:50pm 3.5ft 13s 6s 18 22 mph 1009.6mb 62f 68f
4:50pm 3.5ft 13s 8s 16 18 mph 1008.6mb 63f 68f
3:50pm 3.5ft 13s 8s 13 16 mph 1008.2mb 62f 69f
2:50pm 3.5ft 13s 7s 11 13 mph 1007.7mb 62f 68f
1:50pm 3.5ft 13s 9s 13 16 mph 1007.9mb 63f 69f
12:50pm 3.5ft 13s 8s 7 11 mph 1008mb 63f 68f
11:50am 3ft 14s 8s 11 13 mph 1008.4mb 63f 67f
10:50am 3ft 14s 7s 9 11 mph 1009.2mb 63f 66f
9:50am 4ft 15s 9s 9 11 mph 1009.6mb 63f 66f
8:50am 4ft 14s 9s 9 11 mph 1009.5mb 62f 65f
7:50am 4ft 14s 8s 4 7 mph 1009.7mb 62f 64f
6:50am 4ft 15s 8s 7 9 mph 1009.5mb 62f 64f
5:50am 3.5ft 15s 8s 7 9 mph 1009.3mb 62f 65f
4:50am 3.5ft 16s 7s 7 9 mph 1009mb 62f 64f
3:50am 3.5ft 11s 7s 7 9 mph 1008.8mb 62f 65f
2:50am 3ft 11s 7s 9
mph
1008.9mb 62f 65f
1:50am 3ft 12s 7s 7
mph
1009.1mb 62f 64f
12:50am 3ft 13s 6s 7
mph
1009.5mb 62f 65f
Wed 08/27 11:50pm 2.5ft 8s 6s 11
mph
1009.5mb 62f 66f
10:50pm 3ft 13s 6s 20 27 mph 1009.4mb 62f 70f
9:50pm 3ft 8s 6s 9
mph
1009.8mb 62f 75f
8:50pm 3ft 13s 6s 7
mph
1009.9mb 62f 70f
7:50pm 2.5ft 8s 5s 4 7 mph 1009.6mb 62f 68f
6:50pm 2.5ft 8s 5s 9
mph
1009.5mb 62f 67f
5:50pm 2.5ft 9s 5s 9 11 mph 1009.6mb 63f 67f
4:50pm 3ft 9s 5s 11 13 mph 1009.4mb 63f 67f
3:50pm 3ft 9s 5s 11 13 mph 1009.5mb 63f 67f
2:50pm 3ft 9s 5s 13 16 mph 1009.5mb 63f 68f
1:50pm 3ft 9s 5s 16
mph
1010.4mb 62f 67f
12:50pm 3.5ft 7s 5s 16 18 mph 1010.9mb 62f 66f
11:50am 3.5ft 7s 5s 16 18 mph 1011.4mb 62f 67f
10:50am 3.5ft 8s 5s 13 18 mph 1012.3mb 62f 65f